Thursday, July 19, 2018, 5:54 AM GMT
Back to Local

CYTZ, Toronto Island Airport Automated Reporting Station

Location: , , Canada Lat: 43.633
Local Time: 5:54 AM GMT ( 5:54 GMT) Lon: -79.4
Time Zone: GMT Elev: 252 ft

Show me the last for .
Show Coded

Time T Td Feel RH Dir Speed Gust Alt SLP Vis Weather Sky Remarks
2018-07-19 05:00 66 41 - 39 330° 5 - 30.04 30.04 9 CLR None
2018-07-19 04:00 70 45 - 40 350° 6 - 30.04 30.04 9 CLR None
2018-07-19 03:00 72 57 76 60 Variable 2 - 30.04 30.04 9 BKN044 OVC060 None
2018-07-19 02:00 70 59 - 68 80° 3 - 30.03 30.03 9 CLR None
2018-07-19 01:00 70 59 - 68 130° 3 - 30.01 30.02 9 CLR None
2018-07-19 00:00 72 57 76 60 100° 5 - 30.02 30.02 9 SCT065 None
2018-07-18 23:00 72 57 76 60 130° 7 - 30.02 30.02 9 CLR None
2018-07-18 22:00 72 57 76 60 130° 8 - 30.02 30.02 9 CLR None
2018-07-18 21:00 72 55 76 56 170° 7 - 30.04 30.04 9 CLR None
2018-07-18 20:00 72 55 76 56 170° 8 - 30.05 30.05 9 CLR None
2018-07-18 19:00 72 55 76 56 180° 8 - 30.06 30.07 9 CLR None
2018-07-18 18:00 70 54 - 56 180° 8 - 30.06 30.07 9 CLR None
2018-07-18 17:00 70 54 - 56 150° 8 - 30.08 30.08 9 CLR None
2018-07-18 16:00 70 54 - 56 140° 8 - 30.09 30.09 9 CLR None
2018-07-18 15:00 68 52 - 56 80° 9 17 30.09 30.09 9 CLR None
2018-07-18 14:00 68 52 - 56 90° 10 - 30.08 30.08 9 CLR None
2018-07-18 13:00 68 54 - 60 60° 10 - 30.08 30.08 9 CLR None
2018-07-18 12:00 66 54 - 63 30° 12 - 30.07 30.07 9 CLR None
2018-07-18 11:00 64 54 - 67 10° 8 - 30.06 30.06 9 CLR None
2018-07-18 10:00 64 54 - 67 10° 9 17 30.04 30.04 9 FEW070 None
2018-07-18 09:00 66 55 - 68 350° 7 - 30.02 30.03 9 FEW065 None
2018-07-18 08:00 66 55 - 68 10° 5 - 30.00 30.00 9 BKN070 None
2018-07-18 07:00 68 55 - 64 10° 8 - 29.98 29.98 9 CLR None
2018-07-18 06:00 66 55 - 68 340° 9 - 29.98 29.98 9 CLR None

Support USWX by starting your Amazon purchase here.